sensor_id;sensor_type;location;lat;lon;timestamp;pressure;altitude;pressure_sealevel;temperature;humidity
38620;BME280;24376;51.986;4.662;2022-08-01T00:02:20;90348.53;;;18.31;100.00
38620;BME280;24376;51.986;4.662;2022-08-01T00:04:45;90210.53;;;18.29;100.00
38620;BME280;24376;51.986;4.662;2022-08-01T00:07:10;90120.13;;;18.32;100.00
38620;BME280;24376;51.986;4.662;2022-08-01T00:09:36;90064.06;;;18.30;100.00
38620;BME280;24376;51.986;4.662;2022-08-01T00:12:01;89989.25;;;18.30;100.00
38620;BME280;24376;51.986;4.662;2022-08-01T00:14:27;89854.69;;;18.33;100.00
38620;BME280;24376;51.986;4.662;2022-08-01T00:16:52;89817.13;;;18.31;100.00
38620;BME280;24376;51.986;4.662;2022-08-01T00:19:17;89723.56;;;18.32;100.00
38620;BME280;24376;51.986;4.662;2022-08-01T00:21:42;89674.91;;;18.33;100.00
38620;BME280;24376;51.986;4.662;2022-08-01T00:24:07;89627.31;;;18.33;100.00
38620;BME280;24376;51.986;4.662;2022-08-01T00:26:33;89362.47;;;18.31;100.00
38620;BME280;24376;51.986;4.662;2022-08-01T00:28:58;89290.81;;;18.33;100.00
38620;BME280;24376;51.986;4.662;2022-08-01T00:31:23;89261.22;;;18.31;100.00
38620;BME280;24376;51.986;4.662;2022-08-01T00:33:48;89239.50;;;18.34;100.00
38620;BME280;24376;51.986;4.662;2022-08-01T00:36:13;89202.69;;;18.38;100.00
38620;BME280;24376;51.986;4.662;2022-08-01T00:38:39;89181.38;;;18.34;100.00
38620;BME280;24376;51.986;4.662;2022-08-01T00:41:04;89100.19;;;18.34;100.00
38620;BME280;24376;51.986;4.662;2022-08-01T00:43:29;89054.50;;;18.34;100.00
38620;BME280;24376;51.986;4.662;2022-08-01T00:45:54;89029.31;;;18.37;100.00
38620;BME280;24376;51.986;4.662;2022-08-01T00:48:19;89055.28;;;18.34;100.00
38620;BME280;24376;51.986;4.662;2022-08-01T00:50:45;89053.72;;;18.33;100.00
38620;BME280;24376;51.986;4.662;2022-08-01T00:53:10;88935.53;;;18.34;100.00
38620;BME280;24376;51.986;4.662;2022-08-01T00:55:35;88915.19;;;18.34;100.00
38620;BME280;24376;51.986;4.662;2022-08-01T00:58:00;88839.78;;;18.37;100.00
38620;BME280;24376;51.986;4.662;2022-08-01T01:00:26;88874.91;;;18.38;100.00
38620;BME280;24376;51.986;4.662;2022-08-01T01:02:51;88846.94;;;18.37;100.00
38620;BME280;24376;51.986;4.662;2022-08-01T01:05:16;88765.50;;;18.39;100.00
38620;BME280;24376;51.986;4.662;2022-08-01T01:15:04;88630.81;;;18.33;100.00
38620;BME280;24376;51.986;4.662;2022-08-01T01:17:33;88427.91;;;18.30;100.00
38620;BME280;24376;51.986;4.662;2022-08-01T01:20:00;88099.03;;;18.28;100.00
38620;BME280;24376;51.986;4.662;2022-08-01T01:30:00;87732.59;;;18.20;100.00
38620;BME280;24376;51.986;4.662;2022-08-01T01:32:33;87586.88;;;18.18;100.00
38620;BME280;24376;51.986;4.662;2022-08-01T01:35:02;87507.41;;;18.11;100.00
38620;BME280;24376;51.986;4.662;2022-08-01T01:37:30;87357.97;;;18.10;100.00
38620;BME280;24376;51.986;4.662;2022-08-01T01:39:56;87175.22;;;18.04;100.00
38620;BME280;24376;51.986;4.662;2022-08-01T01:42:23;87100.06;;;18.01;100.00
38620;BME280;24376;51.986;4.662;2022-08-01T01:44:50;87029.13;;;18.00;100.00
38620;BME280;24376;51.986;4.662;2022-08-01T01:47:16;86727.41;;;18.03;100.00
38620;BME280;24376;51.986;4.662;2022-08-01T01:49:43;86612.34;;;18.02;100.00
38620;BME280;24376;51.986;4.662;2022-08-01T01:52:09;86504.88;;;18.02;100.00
38620;BME280;24376;51.986;4.662;2022-08-01T01:54:35;86335.50;;;18.00;100.00
38620;BME280;24376;51.986;4.662;2022-08-01T01:57:02;86281.56;;;18.01;100.00
38620;BME280;24376;51.986;4.662;2022-08-01T01:59:29;86091.88;;;18.00;100.00
38620;BME280;24376;51.986;4.662;2022-08-01T02:01:56;86068.81;;;17.97;100.00
38620;BME280;24376;51.986;4.662;2022-08-01T02:04:23;86015.28;;;17.93;100.00
38620;BME280;24376;51.986;4.662;2022-08-01T02:06:49;85938.72;;;17.93;100.00
38620;BME280;24376;51.986;4.662;2022-08-01T02:09:18;98514.06;;;17.94;78.00
38620;BME280;24376;51.986;4.662;2022-08-01T02:11:45;98387.09;;;17.91;67.69
38620;BME280;24376;51.986;4.662;2022-08-01T02:14:11;98517.72;;;17.92;67.27
38620;BME280;24376;51.986;4.662;2022-08-01T02:16:37;98592.88;;;17.88;67.12
38620;BME280;24376;51.986;4.662;2022-08-01T02:19:04;98606.22;;;17.85;67.02
38620;BME280;24376;51.986;4.662;2022-08-01T02:21:30;98663.66;;;17.83;66.95
38620;BME280;24376;51.986;4.662;2022-08-01T02:24:00;98717.59;;;17.80;66.94
38620;BME280;24376;51.986;4.662;2022-08-01T02:26:27;98663.78;;;17.79;66.95
38620;BME280;24376;51.986;4.662;2022-08-01T02:28:55;98676.09;;;17.80;66.96
38620;BME280;24376;51.986;4.662;2022-08-01T02:31:22;98659.63;;;17.72;66.95
38620;BME280;24376;51.986;4.662;2022-08-01T02:33:52;98605.97;;;17.67;66.96
38620;BME280;24376;51.986;4.662;2022-08-01T02:36:19;98565.47;;;17.65;66.98
38620;BME280;24376;51.986;4.662;2022-08-01T02:38:44;98542.47;;;17.67;67.00
38620;BME280;24376;51.986;4.662;2022-08-01T02:41:11;98628.16;;;17.65;66.91
38620;BME280;24376;51.986;4.662;2022-08-01T02:43:40;98600.91;;;17.61;66.90
38620;BME280;24376;51.986;4.662;2022-08-01T02:46:07;98615.06;;;17.60;66.91
38620;BME280;24376;51.986;4.662;2022-08-01T02:48:34;98685.66;;;17.60;66.93
38620;BME280;24376;51.986;4.662;2022-08-01T02:51:01;98826.78;;;17.60;66.92
38620;BME280;24376;51.986;4.662;2022-08-01T02:53:27;98838.25;;;17.61;66.94
38620;BME280;24376;51.986;4.662;2022-08-01T02:55:55;98849.66;;;17.63;66.94
38620;BME280;24376;51.986;4.662;2022-08-01T02:58:21;98870.84;;;17.61;66.94
38620;BME280;24376;51.986;4.662;2022-08-01T03:00:48;98995.44;;;17.55;66.91
38620;BME280;24376;51.986;4.662;2022-08-01T03:03:14;99007.94;;;17.51;66.91
38620;BME280;24376;51.986;4.662;2022-08-01T03:05:40;99004.63;;;17.43;66.91
38620;BME280;24376;51.986;4.662;2022-08-01T03:08:07;99025.06;;;17.40;66.93
38620;BME280;24376;51.986;4.662;2022-08-01T03:10:33;99077.13;;;17.38;66.90
38620;BME280;24376;51.986;4.662;2022-08-01T03:13:00;99062.28;;;17.34;66.91
38620;BME280;24376;51.986;4.662;2022-08-01T03:15:27;99087.75;;;17.36;66.90
38620;BME280;24376;51.986;4.662;2022-08-01T03:17:55;99107.31;;;17.31;66.90
38620;BME280;24376;51.986;4.662;2022-08-01T03:20:21;99111.81;;;17.27;66.91
38620;BME280;24376;51.986;4.662;2022-08-01T03:22:50;99212.41;;;17.25;66.85
38620;BME280;24376;51.986;4.662;2022-08-01T03:25:17;99117.28;;;17.21;66.91
38620;BME280;24376;51.986;4.662;2022-08-01T03:27:43;99258.44;;;17.18;66.83
38620;BME280;24376;51.986;4.662;2022-08-01T03:30:10;99267.19;;;17.20;66.81
38620;BME280;24376;51.986;4.662;2022-08-01T03:32:36;99284.72;;;17.24;66.82
38620;BME280;24376;51.986;4.662;2022-08-01T03:35:02;99286.41;;;17.28;66.83
38620;BME280;24376;51.986;4.662;2022-08-01T03:37:28;99289.13;;;17.25;66.83
38620;BME280;24376;51.986;4.662;2022-08-01T03:39:58;99321.78;;;17.24;66.83
38620;BME280;24376;51.986;4.662;2022-08-01T03:42:28;99313.84;;;17.24;66.83
38620;BME280;24376;51.986;4.662;2022-08-01T03:44:57;99317.34;;;17.25;66.84
38620;BME280;24376;51.986;4.662;2022-08-01T03:47:24;99319.94;;;17.28;66.85
38620;BME280;24376;51.986;4.662;2022-08-01T03:49:51;99164.78;;;17.25;66.94
38620;BME280;24376;51.986;4.662;2022-08-01T03:52:17;99305.97;;;17.21;66.85
38620;BME280;24376;51.986;4.662;2022-08-01T03:54:52;99319.19;;;17.21;66.85
38620;BME280;24376;51.986;4.662;2022-08-01T03:57:19;99292.66;;;17.24;66.85
38620;BME280;24376;51.986;4.662;2022-08-01T03:59:45;99304.06;;;17.26;66.85
38620;BME280;24376;51.986;4.662;2022-08-01T04:02:11;99261.69;;;17.29;66.87
38620;BME280;24376;51.986;4.662;2022-08-01T04:04:38;99269.56;;;17.31;66.87
38620;BME280;24376;51.986;4.662;2022-08-01T04:07:04;99247.47;;;17.34;66.88
38620;BME280;24376;51.986;4.662;2022-08-01T04:09:31;99262.38;;;17.36;66.89
38620;BME280;24376;51.986;4.662;2022-08-01T04:11:58;99239.38;;;17.38;66.89
38620;BME280;24376;51.986;4.662;2022-08-01T04:14:23;99249.09;;;17.38;66.89
38620;BME280;24376;51.986;4.662;2022-08-01T04:16:48;99228.09;;;17.32;66.89
38620;BME280;24376;51.986;4.662;2022-08-01T04:19:14;99239.88;;;17.20;66.89
38620;BME280;24376;51.986;4.662;2022-08-01T04:21:39;99241.06;;;17.08;66.89
38620;BME280;24376;51.986;4.662;2022-08-01T04:24:09;99268.38;;;17.09;66.87
38620;BME280;24376;51.986;4.662;2022-08-01T04:26:36;99303.63;;;17.11;66.85
38620;BME280;24376;51.986;4.662;2022-08-01T04:29:02;99324.03;;;17.04;66.85
38620;BME280;24376;51.986;4.662;2022-08-01T04:31:29;99336.47;;;17.00;66.85
38620;BME280;24376;51.986;4.662;2022-08-01T04:33:55;99365.50;;;17.02;66.83
38620;BME280;24376;51.986;4.662;2022-08-01T04:36:22;99361.06;;;17.04;66.83
38620;BME280;24376;51.986;4.662;2022-08-01T04:38:48;99413.88;;;17.07;66.83
38620;BME280;24376;51.986;4.662;2022-08-01T04:41:15;99409.47;;;17.08;66.83
38620;BME280;24376;51.986;4.662;2022-08-01T04:43:40;99435.00;;;17.09;66.82
38620;BME280;24376;51.986;4.662;2022-08-01T04:46:06;99420.03;;;17.08;66.83
38620;BME280;24376;51.986;4.662;2022-08-01T04:48:33;99449.03;;;17.12;66.82
38620;BME280;24376;51.986;4.662;2022-08-01T04:51:00;99469.19;;;17.18;66.83
38620;BME280;24376;51.986;4.662;2022-08-01T04:53:25;99483.13;;;17.24;66.83
38620;BME280;24376;51.986;4.662;2022-08-01T04:55:51;99483.00;;;17.31;66.83
38620;BME280;24376;51.986;4.662;2022-08-01T04:58:16;99458.13;;;17.38;66.85
38620;BME280;24376;51.986;4.662;2022-08-01T05:00:42;99445.00;;;17.35;66.84
38620;BME280;24376;51.986;4.662;2022-08-01T05:03:07;99462.50;;;17.39;66.87
38620;BME280;24376;51.986;4.662;2022-08-01T05:05:32;99269.13;;;17.48;67.00
38620;BME280;24376;51.986;4.662;2022-08-01T05:07:57;99496.66;;;17.49;66.88
38620;BME280;24376;51.986;4.662;2022-08-01T05:10:22;99406.69;;;17.49;66.92
38620;BME280;24376;51.986;4.662;2022-08-01T05:12:47;99354.41;;;17.59;66.95
38620;BME280;24376;51.986;4.662;2022-08-01T05:15:13;99319.03;;;17.62;66.97
38620;BME280;24376;51.986;4.662;2022-08-01T05:17:38;99283.69;;;17.64;66.99
38620;BME280;24376;51.986;4.662;2022-08-01T05:20:03;99244.53;;;17.77;67.01
38620;BME280;24376;51.986;4.662;2022-08-01T05:22:31;98909.28;;;17.74;67.98
38620;BME280;24376;51.986;4.662;2022-08-01T05:24:56;99263.97;;;17.76;66.93
38620;BME280;24376;51.986;4.662;2022-08-01T05:27:21;99204.44;;;17.89;66.97
38620;BME280;24376;51.986;4.662;2022-08-01T05:29:47;99154.81;;;17.96;67.00
38620;BME280;24376;51.986;4.662;2022-08-01T05:32:12;99137.66;;;18.09;67.00
38620;BME280;24376;51.986;4.662;2022-08-01T05:34:37;99121.06;;;18.02;67.04
38620;BME280;24376;51.986;4.662;2022-08-01T05:37:02;99041.41;;;18.08;67.20
38620;BME280;24376;51.986;4.662;2022-08-01T05:39:27;99027.28;;;18.08;67.25
38620;BME280;24376;51.986;4.662;2022-08-01T05:41:53;99004.06;;;18.16;67.35
38620;BME280;24376;51.986;4.662;2022-08-01T05:44:18;98977.00;;;18.33;67.49
38620;BME280;24376;51.986;4.662;2022-08-01T05:46:43;98904.47;;;18.35;68.17
38620;BME280;24376;51.986;4.662;2022-08-01T05:49:08;98922.91;;;18.39;68.14
38620;BME280;24376;51.986;4.662;2022-08-01T05:51:33;98848.72;;;18.39;68.94
38620;BME280;24376;51.986;4.662;2022-08-01T05:53:59;98812.34;;;18.42;69.31
38620;BME280;24376;51.986;4.662;2022-08-01T05:56:24;98759.44;;;18.41;69.65
38620;BME280;24376;51.986;4.662;2022-08-01T05:58:49;98682.41;;;18.45;70.32
38620;BME280;24376;51.986;4.662;2022-08-01T06:01:15;98631.56;;;18.35;70.69
38620;BME280;24376;51.986;4.662;2022-08-01T06:03:40;98559.91;;;18.39;71.50
38620;BME280;24376;51.986;4.662;2022-08-01T06:06:06;98533.41;;;18.39;71.35
38620;BME280;24376;51.986;4.662;2022-08-01T06:08:31;98534.16;;;18.20;71.08
38620;BME280;24376;51.986;4.662;2022-08-01T06:10:56;98531.16;;;18.07;71.29
38620;BME280;24376;51.986;4.662;2022-08-01T06:13:22;98535.06;;;17.99;71.00
38620;BME280;24376;51.986;4.662;2022-08-01T06:15:47;98571.06;;;18.03;70.45
38620;BME280;24376;51.986;4.662;2022-08-01T06:18:13;98580.75;;;18.04;70.43
38620;BME280;24376;51.986;4.662;2022-08-01T06:20:38;98599.41;;;18.01;70.60
38620;BME280;24376;51.986;4.662;2022-08-01T06:23:04;98605.22;;;18.11;70.47
38620;BME280;24376;51.986;4.662;2022-08-01T06:25:29;98618.28;;;18.15;70.39
38620;BME280;24376;51.986;4.662;2022-08-01T06:27:54;98622.38;;;18.22;70.61
38620;BME280;24376;51.986;4.662;2022-08-01T06:30:19;98628.47;;;18.24;70.62
38620;BME280;24376;51.986;4.662;2022-08-01T06:32:45;98638.09;;;18.27;70.75
38620;BME280;24376;51.986;4.662;2022-08-01T06:35:10;98663.41;;;18.34;70.33
38620;BME280;24376;51.986;4.662;2022-08-01T06:37:35;98654.47;;;18.37;70.77
38620;BME280;24376;51.986;4.662;2022-08-01T06:40:10;98672.78;;;18.43;70.51
38620;BME280;24376;51.986;4.662;2022-08-01T06:42:36;98686.03;;;18.43;70.55
38620;BME280;24376;51.986;4.662;2022-08-01T06:45:04;98696.94;;;18.57;70.42
38620;BME280;24376;51.986;4.662;2022-08-01T06:47:29;98705.75;;;18.57;70.70
38620;BME280;24376;51.986;4.662;2022-08-01T06:49:55;98714.81;;;18.52;70.98
38620;BME280;24376;51.986;4.662;2022-08-01T06:52:20;98730.66;;;18.53;71.09
38620;BME280;24376;51.986;4.662;2022-08-01T06:54:45;98717.09;;;18.61;71.40
38620;BME280;24376;51.986;4.662;2022-08-01T06:57:11;98656.78;;;18.66;71.93
38620;BME280;24376;51.986;4.662;2022-08-01T06:59:36;98609.75;;;18.51;72.19
38620;BME280;24376;51.986;4.662;2022-08-01T07:02:01;98565.22;;;18.59;72.30
38620;BME280;24376;51.986;4.662;2022-08-01T07:04:27;98543.88;;;18.42;73.45
38620;BME280;24376;51.986;4.662;2022-08-01T07:06:52;98530.91;;;18.56;73.52
38620;BME280;24376;51.986;4.662;2022-08-01T07:09:17;98512.34;;;18.56;75.80
38620;BME280;24376;51.986;4.662;2022-08-01T07:11:42;98494.69;;;18.55;77.47
38620;BME280;24376;51.986;4.662;2022-08-01T07:14:07;98478.41;;;18.44;89.42
38620;BME280;24376;51.986;4.662;2022-08-01T07:16:33;98441.47;;;18.41;100.00
38620;BME280;24376;51.986;4.662;2022-08-01T07:18:58;98428.22;;;18.41;100.00
38620;BME280;24376;51.986;4.662;2022-08-01T07:21:23;98429.47;;;18.32;100.00
38620;BME280;24376;51.986;4.662;2022-08-01T07:23:48;98436.53;;;18.31;100.00
38620;BME280;24376;51.986;4.662;2022-08-01T07:26:13;98432.84;;;18.35;100.00
38620;BME280;24376;51.986;4.662;2022-08-01T07:28:38;98436.22;;;18.39;100.00
38620;BME280;24376;51.986;4.662;2022-08-01T07:31:04;98446.69;;;18.42;100.00
38620;BME280;24376;51.986;4.662;2022-08-01T07:33:29;98439.59;;;18.43;100.00
38620;BME280;24376;51.986;4.662;2022-08-01T07:35:55;98476.16;;;18.34;100.00
38620;BME280;24376;51.986;4.662;2022-08-01T07:38:20;98616.59;;;18.34;75.24
38620;BME280;24376;51.986;4.662;2022-08-01T07:40:45;98618.13;;;18.40;82.30
38620;BME280;24376;51.986;4.662;2022-08-01T07:43:10;98613.69;;;18.61;84.62
38620;BME280;24376;51.986;4.662;2022-08-01T07:45:35;98627.00;;;18.17;100.00
38620;BME280;24376;51.986;4.662;2022-08-01T07:48:04;98603.19;;;18.38;100.00
38620;BME280;24376;51.986;4.662;2022-08-01T07:50:29;98574.22;;;18.55;100.00
38620;BME280;24376;51.986;4.662;2022-08-01T07:52:55;98568.13;;;18.53;100.00
38620;BME280;24376;51.986;4.662;2022-08-01T07:55:20;98534.94;;;18.65;100.00
38620;BME280;24376;51.986;4.662;2022-08-01T07:57:45;98508.56;;;18.82;100.00
38620;BME280;24376;51.986;4.662;2022-08-01T08:00:10;98494.09;;;18.89;100.00
38620;BME280;24376;51.986;4.662;2022-08-01T08:02:36;98477.09;;;18.74;100.00
38620;BME280;24376;51.986;4.662;2022-08-01T08:05:01;98459.88;;;18.84;100.00
38620;BME280;24376;51.986;4.662;2022-08-01T08:07:26;98467.66;;;18.87;100.00
38620;BME280;24376;51.986;4.662;2022-08-01T08:09:51;98473.91;;;18.86;100.00
38620;BME280;24376;51.986;4.662;2022-08-01T08:12:17;98495.50;;;18.77;100.00
38620;BME280;24376;51.986;4.662;2022-08-01T08:14:42;98482.31;;;18.96;100.00
38620;BME280;24376;51.986;4.662;2022-08-01T08:17:07;98515.78;;;19.18;100.00
38620;BME280;24376;51.986;4.662;2022-08-01T08:19:33;98550.75;;;19.07;100.00
38620;BME280;24376;51.986;4.662;2022-08-01T08:21:59;98558.59;;;19.29;100.00
38620;BME280;24376;51.986;4.662;2022-08-01T08:24:24;98570.72;;;19.16;100.00
38620;BME280;24376;51.986;4.662;2022-08-01T08:26:51;98568.44;;;19.27;100.00
38620;BME280;24376;51.986;4.662;2022-08-01T08:29:18;98541.50;;;19.55;100.00
38620;BME280;24376;51.986;4.662;2022-08-01T08:31:43;98546.25;;;19.67;100.00
38620;BME280;24376;51.986;4.662;2022-08-01T08:34:08;98608.63;;;19.77;100.00
38620;BME280;24376;51.986;4.662;2022-08-01T08:36:34;98701.41;;;19.80;100.00
38620;BME280;24376;51.986;4.662;2022-08-01T08:38:59;98745.31;;;20.08;100.00
38620;BME280;24376;51.986;4.662;2022-08-01T08:41:30;98871.59;;;19.96;100.00
38620;BME280;24376;51.986;4.662;2022-08-01T08:43:56;98954.09;;;20.13;100.00
38620;BME280;24376;51.986;4.662;2022-08-01T08:46:23;99047.88;;;20.15;100.00
38620;BME280;24376;51.986;4.662;2022-08-01T08:48:48;99113.44;;;20.37;100.00
38620;BME280;24376;51.986;4.662;2022-08-01T08:51:13;99185.50;;;20.53;100.00
38620;BME280;24376;51.986;4.662;2022-08-01T08:53:42;99276.03;;;20.50;100.00
38620;BME280;24376;51.986;4.662;2022-08-01T08:56:10;99359.88;;;20.58;100.00
38620;BME280;24376;51.986;4.662;2022-08-01T08:58:36;99428.06;;;20.61;100.00
38620;BME280;24376;51.986;4.662;2022-08-01T09:01:06;99490.09;;;20.85;100.00
38620;BME280;24376;51.986;4.662;2022-08-01T09:03:32;99608.41;;;20.50;100.00
38620;BME280;24376;51.986;4.662;2022-08-01T09:05:57;99624.34;;;21.01;100.00
38620;BME280;24376;51.986;4.662;2022-08-01T09:08:22;99734.16;;;21.06;100.00
38620;BME280;24376;51.986;4.662;2022-08-01T09:10:47;99781.81;;;21.40;100.00
38620;BME280;24376;51.986;4.662;2022-08-01T09:13:13;99838.25;;;21.51;100.00
38620;BME280;24376;51.986;4.662;2022-08-01T09:15:49;99860.06;;;21.88;100.00
38620;BME280;24376;51.986;4.662;2022-08-01T09:18:25;99913.16;;;21.94;100.00
38620;BME280;24376;51.986;4.662;2022-08-01T09:20:52;99962.94;;;21.93;100.00
38620;BME280;24376;51.986;4.662;2022-08-01T09:23:32;100005.91;;;22.11;100.00
38620;BME280;24376;51.986;4.662;2022-08-01T09:25:58;100037.31;;;22.27;100.00
38620;BME280;24376;51.986;4.662;2022-08-01T09:28:32;100070.19;;;22.53;100.00
38620;BME280;24376;51.986;4.662;2022-08-01T09:31:07;100107.75;;;22.47;100.00
38620;BME280;24376;51.986;4.662;2022-08-01T09:36:17;100242.34;;;22.10;100.00
38620;BME280;24376;51.986;4.662;2022-08-01T09:38:42;100260.28;;;22.33;100.00
38620;BME280;24376;51.986;4.662;2022-08-01T09:41:08;100256.13;;;22.79;100.00
38620;BME280;24376;51.986;4.662;2022-08-01T09:43:33;100276.94;;;22.96;100.00
38620;BME280;24376;51.986;4.662;2022-08-01T09:45:59;100312.34;;;23.02;100.00
38620;BME280;24376;51.986;4.662;2022-08-01T09:48:25;100427.06;;;22.15;100.00
38620;BME280;24376;51.986;4.662;2022-08-01T09:50:51;100435.53;;;22.29;100.00
38620;BME280;24376;51.986;4.662;2022-08-01T09:53:17;100440.84;;;22.61;100.00
38620;BME280;24376;51.986;4.662;2022-08-01T09:55:43;100442.63;;;22.91;100.00
38620;BME280;24376;51.986;4.662;2022-08-01T09:58:09;100468.03;;;23.04;100.00
38620;BME280;24376;51.986;4.662;2022-08-01T10:00:36;100485.88;;;23.30;100.00
38620;BME280;24376;51.986;4.662;2022-08-01T10:03:46;100489.28;;;23.63;100.00
38620;BME280;24376;51.986;4.662;2022-08-01T10:05:47;100480.97;;;24.24;100.00
38620;BME280;24376;51.986;4.662;2022-08-01T10:08:12;100528.41;;;23.93;100.00
38620;BME280;24376;51.986;4.662;2022-08-01T10:10:38;100573.56;;;23.75;100.00
38620;BME280;24376;51.986;4.662;2022-08-01T10:13:03;100637.97;;;23.38;100.00
38620;BME280;24376;51.986;4.662;2022-08-01T10:15:29;100686.09;;;23.05;100.00
38620;BME280;24376;51.986;4.662;2022-08-01T10:17:56;100705.47;;;23.14;100.00
38620;BME280;24376;51.986;4.662;2022-08-01T10:20:22;100679.16;;;23.90;100.00
38620;BME280;24376;51.986;4.662;2022-08-01T10:22:48;100693.09;;;24.01;100.00
38620;BME280;24376;51.986;4.662;2022-08-01T10:25:14;100708.22;;;24.29;100.00
38620;BME280;24376;51.986;4.662;2022-08-01T10:27:42;100815.56;;;24.20;100.00
38620;BME280;24376;51.986;4.662;2022-08-01T10:30:10;99116.47;;;24.11;100.00
38620;BME280;24376;51.986;4.662;2022-08-01T10:32:36;100057.38;;;24.24;100.00
38620;BME280;24376;51.986;4.662;2022-08-01T10:35:01;100388.28;;;24.22;100.00
38620;BME280;24376;51.986;4.662;2022-08-01T10:37:28;100401.91;;;24.15;100.00
38620;BME280;24376;51.986;4.662;2022-08-01T10:39:54;100382.91;;;24.47;100.00
38620;BME280;24376;51.986;4.662;2022-08-01T10:42:20;100378.31;;;24.27;100.00
38620;BME280;24376;51.986;4.662;2022-08-01T10:44:45;100396.22;;;24.25;100.00
38620;BME280;24376;51.986;4.662;2022-08-01T10:47:13;100391.88;;;24.46;100.00
38620;BME280;24376;51.986;4.662;2022-08-01T10:49:45;100407.91;;;24.47;100.00
38620;BME280;24376;51.986;4.662;2022-08-01T10:52:15;100431.16;;;24.45;100.00
38620;BME280;24376;51.986;4.662;2022-08-01T10:54:41;100447.13;;;24.48;100.00
38620;BME280;24376;51.986;4.662;2022-08-01T10:57:06;100443.50;;;24.73;100.00
38620;BME280;24376;51.986;4.662;2022-08-01T10:59:32;100448.69;;;24.77;100.00
38620;BME280;24376;51.986;4.662;2022-08-01T11:01:58;100421.66;;;25.07;100.00
38620;BME280;24376;51.986;4.662;2022-08-01T11:04:37;100496.25;;;24.71;100.00
38620;BME280;24376;51.986;4.662;2022-08-01T11:07:07;100496.50;;;24.86;100.00
38620;BME280;24376;51.986;4.662;2022-08-01T11:09:45;100471.81;;;25.25;100.00
38620;BME280;24376;51.986;4.662;2022-08-01T11:12:15;100542.91;;;25.12;100.00
38620;BME280;24376;51.986;4.662;2022-08-01T11:25:24;100619.16;;;25.02;100.00
38620;BME280;24376;51.986;4.662;2022-08-01T11:27:59;100670.56;;;24.88;100.00
38620;BME280;24376;51.986;4.662;2022-08-01T11:30:34;100734.81;;;25.14;100.00
38620;BME280;24376;51.986;4.662;2022-08-01T11:32:59;100842.72;;;24.65;100.00
38620;BME280;24376;51.986;4.662;2022-08-01T11:35:24;100862.31;;;24.37;100.00
38620;BME280;24376;51.986;4.662;2022-08-01T11:37:51;100831.63;;;24.76;100.00
38620;BME280;24376;51.986;4.662;2022-08-01T11:40:18;100864.69;;;24.76;100.00
38620;BME280;24376;51.986;4.662;2022-08-01T11:42:43;100879.69;;;24.82;100.00
38620;BME280;24376;51.986;4.662;2022-08-01T11:45:09;100886.78;;;25.11;100.00
38620;BME280;24376;51.986;4.662;2022-08-01T11:47:50;100901.59;;;25.23;100.00
38620;BME280;24376;51.986;4.662;2022-08-01T11:53:03;100905.81;;;25.30;100.00
38620;BME280;24376;51.986;4.662;2022-08-01T11:55:28;100335.47;;;24.95;100.00
38620;BME280;24376;51.986;4.662;2022-08-01T11:58:00;100287.94;;;25.62;100.00
38620;BME280;24376;51.986;4.662;2022-08-01T12:00:26;100191.63;;;25.96;100.00
38620;BME280;24376;51.986;4.662;2022-08-01T12:02:58;100208.09;;;25.68;100.00
38620;BME280;24376;51.986;4.662;2022-08-01T12:05:23;100290.88;;;24.51;100.00
38620;BME280;24376;51.986;4.662;2022-08-01T12:07:56;100188.38;;;25.11;100.00
38620;BME280;24376;51.986;4.662;2022-08-01T12:10:23;100166.72;;;25.76;100.00
38620;BME280;24376;51.986;4.662;2022-08-01T12:12:50;100211.03;;;25.64;100.00
38620;BME280;24376;51.986;4.662;2022-08-01T12:15:16;100185.16;;;26.19;100.00
38620;BME280;24376;51.986;4.662;2022-08-01T12:17:42;100212.31;;;26.31;100.00
38620;BME280;24376;51.986;4.662;2022-08-01T12:20:13;100181.56;;;26.91;100.00
38620;BME280;24376;51.986;4.662;2022-08-01T12:22:38;100201.59;;;27.01;100.00
38620;BME280;24376;51.986;4.662;2022-08-01T12:25:07;100212.31;;;27.03;100.00
38620;BME280;24376;51.986;4.662;2022-08-01T12:27:36;100225.25;;;26.95;100.00
38620;BME280;24376;51.986;4.662;2022-08-01T12:30:03;100334.34;;;26.23;100.00
38620;BME280;24376;51.986;4.662;2022-08-01T12:32:33;100338.94;;;25.82;100.00
38620;BME280;24376;51.986;4.662;2022-08-01T12:35:02;100347.06;;;25.81;100.00
38620;BME280;24376;51.986;4.662;2022-08-01T12:37:30;100400.94;;;25.32;100.00
38620;BME280;24376;51.986;4.662;2022-08-01T12:39:56;100405.84;;;25.43;100.00
38620;BME280;24376;51.986;4.662;2022-08-01T12:42:22;100413.53;;;25.08;100.00
38620;BME280;24376;51.986;4.662;2022-08-01T12:44:49;100418.03;;;25.30;100.00
38620;BME280;24376;51.986;4.662;2022-08-01T12:47:16;100396.34;;;25.56;100.00
38620;BME280;24376;51.986;4.662;2022-08-01T12:49:42;100399.69;;;25.61;100.00
38620;BME280;24376;51.986;4.662;2022-08-01T12:52:08;100431.66;;;25.45;100.00
38620;BME280;24376;51.986;4.662;2022-08-01T12:55:10;100440.19;;;25.33;100.00
38620;BME280;24376;51.986;4.662;2022-08-01T12:57:28;100488.66;;;25.29;100.00
38620;BME280;24376;51.986;4.662;2022-08-01T12:59:53;100393.72;;;25.77;100.00
38620;BME280;24376;51.986;4.662;2022-08-01T13:02:32;100387.88;;;26.26;100.00
38620;BME280;24376;51.986;4.662;2022-08-01T13:04:58;100407.19;;;26.35;100.00
38620;BME280;24376;51.986;4.662;2022-08-01T13:07:33;100428.72;;;26.53;100.00
38620;BME280;24376;51.986;4.662;2022-08-01T13:09:59;100452.84;;;26.93;100.00
38620;BME280;24376;51.986;4.662;2022-08-01T13:12:24;100513.69;;;26.94;100.00
38620;BME280;24376;51.986;4.662;2022-08-01T13:14:49;100512.06;;;26.71;100.00
38620;BME280;24376;51.986;4.662;2022-08-01T13:17:29;100596.00;;;25.93;100.00
38620;BME280;24376;51.986;4.662;2022-08-01T13:19:54;100509.91;;;26.79;100.00